sensor_id;sensor_type;location;lat;lon;timestamp;pressure;altitude;pressure_sealevel;temperature;humidity
9523;BME280;63165;43.016;25.784;2023-04-29T00:02:22;100315.50;;;5.37;79.16
9523;BME280;63165;43.016;25.784;2023-04-29T00:05:02;100318.09;;;5.41;79.40
9523;BME280;63165;43.016;25.784;2023-04-29T00:07:36;100315.41;;;5.28;79.60
9523;BME280;63165;43.016;25.784;2023-04-29T00:10:08;100334.50;;;5.36;79.44
9523;BME280;63165;43.016;25.784;2023-04-29T00:13:06;100343.06;;;5.25;80.17
9523;BME280;63165;43.016;25.784;2023-04-29T00:15:46;100323.28;;;5.37;80.00
9523;BME280;63165;43.016;25.784;2023-04-29T00:18:18;100339.69;;;5.36;80.13
9523;BME280;63165;43.016;25.784;2023-04-29T00:20:56;100297.03;;;5.08;79.78
9523;BME280;63165;43.016;25.784;2023-04-29T00:23:40;100330.97;;;5.29;79.79
9523;BME280;63165;43.016;25.784;2023-04-29T00:26:24;100319.56;;;5.13;79.61
9523;BME280;63165;43.016;25.784;2023-04-29T00:28:56;100337.81;;;5.22;79.43
9523;BME280;63165;43.016;25.784;2023-04-29T00:31:38;100330.84;;;5.17;79.80
9523;BME280;63165;43.016;25.784;2023-04-29T00:34:19;100321.28;;;5.11;79.71
9523;BME280;63165;43.016;25.784;2023-04-29T00:37:15;100161.34;;;4.17;79.52
9523;BME280;63165;43.016;25.784;2023-04-29T00:39:52;100317.78;;;5.06;79.67
9523;BME280;63165;43.016;25.784;2023-04-29T00:42:46;100316.91;;;5.04;79.63
9523;BME280;63165;43.016;25.784;2023-04-29T00:45:36;100314.28;;;5.04;79.91
9523;BME280;63165;43.016;25.784;2023-04-29T00:48:21;100319.47;;;5.04;80.10
9523;BME280;63165;43.016;25.784;2023-04-29T00:51:03;100315.16;;;5.01;80.29
9523;BME280;63165;43.016;25.784;2023-04-29T00:54:12;100319.44;;;4.99;80.26
9523;BME280;63165;43.016;25.784;2023-04-29T00:56:44;100251.66;;;4.65;79.80
9523;BME280;63165;43.016;25.784;2023-04-29T00:59:36;100302.03;;;4.89;80.01
9523;BME280;63165;43.016;25.784;2023-04-29T01:02:23;100300.31;;;4.86;79.95
9523;BME280;63165;43.016;25.784;2023-04-29T01:05:21;100295.91;;;4.82;80.25
9523;BME280;63165;43.016;25.784;2023-04-29T01:08:21;100309.72;;;4.80;80.30
9523;BME280;63165;43.016;25.784;2023-04-29T01:11:22;100289.84;;;4.77;80.20
9523;BME280;63165;43.016;25.784;2023-04-29T01:14:10;100279.38;;;4.71;79.94
9523;BME280;63165;43.016;25.784;2023-04-29T01:16:58;100250.63;;;4.48;80.07
9523;BME280;63165;43.016;25.784;2023-04-29T01:19:56;100246.19;;;4.39;80.33
9523;BME280;63165;43.016;25.784;2023-04-29T01:22:34;100284.44;;;4.59;79.99
9523;BME280;63165;43.016;25.784;2023-04-29T01:25:08;100287.88;;;4.58;80.84
9523;BME280;63165;43.016;25.784;2023-04-29T01:28:03;100276.66;;;4.59;80.76
9523;BME280;63165;43.016;25.784;2023-04-29T01:30:59;100284.41;;;4.57;80.53
9523;BME280;63165;43.016;25.784;2023-04-29T01:33:57;100263.59;;;4.48;80.80
9523;BME280;63165;43.016;25.784;2023-04-29T01:37:03;100274.00;;;4.53;81.01
9523;BME280;63165;43.016;25.784;2023-04-29T01:39:59;100286.06;;;4.52;80.82
9523;BME280;63165;43.016;25.784;2023-04-29T01:43:04;100267.91;;;4.51;81.40
9523;BME280;63165;43.016;25.784;2023-04-29T01:46:01;100274.81;;;4.50;81.16
9523;BME280;63165;43.016;25.784;2023-04-29T01:48:51;100291.22;;;4.51;80.89
9523;BME280;63165;43.016;25.784;2023-04-29T01:51:37;100265.28;;;4.46;80.97
9523;BME280;63165;43.016;25.784;2023-04-29T01:54:35;100266.97;;;4.42;81.54
9523;BME280;63165;43.016;25.784;2023-04-29T01:57:44;100270.41;;;4.41;81.50
9523;BME280;63165;43.016;25.784;2023-04-29T02:10:26;100273.81;;;4.37;81.33
9523;BME280;63165;43.016;25.784;2023-04-29T02:13:37;100254.69;;;4.27;81.85
9523;BME280;63165;43.016;25.784;2023-04-29T02:20:10;100242.50;;;4.17;81.83
9523;BME280;63165;43.016;25.784;2023-04-29T04:21:29;100251.50;;;4.47;84.18
9523;BME280;63165;43.016;25.784;2023-04-29T04:27:20;100302.84;;;4.83;83.90
9523;BME280;63165;43.016;25.784;2023-04-29T04:30:23;100286.53;;;4.92;85.38
9523;BME280;63165;43.016;25.784;2023-04-29T04:33:08;100265.72;;;4.86;84.90
9523;BME280;63165;43.016;25.784;2023-04-29T04:35:49;100275.31;;;4.95;85.56
9523;BME280;63165;43.016;25.784;2023-04-29T04:38:25;100286.69;;;5.09;86.16
9523;BME280;63165;43.016;25.784;2023-04-29T04:40:59;100296.25;;;5.13;85.94
9523;BME280;63165;43.016;25.784;2023-04-29T04:43:53;100294.56;;;5.18;86.60
9523;BME280;63165;43.016;25.784;2023-04-29T04:46:34;100285.97;;;5.24;86.79
9523;BME280;63165;43.016;25.784;2023-04-29T04:49:19;100294.66;;;5.31;87.20
9523;BME280;63165;43.016;25.784;2023-04-29T04:52:23;100300.81;;;5.43;87.61
9523;BME280;63165;43.016;25.784;2023-04-29T04:55:15;100296.63;;;5.58;88.07
9523;BME280;63165;43.016;25.784;2023-04-29T04:57:56;100301.00;;;5.68;88.32
9523;BME280;63165;43.016;25.784;2023-04-29T05:00:36;100292.44;;;5.78;87.78
9523;BME280;63165;43.016;25.784;2023-04-29T05:03:17;100301.16;;;5.90;88.16
9523;BME280;63165;43.016;25.784;2023-04-29T05:06:07;100298.69;;;6.05;87.84
9523;BME280;63165;43.016;25.784;2023-04-29T05:08:45;100306.56;;;6.20;88.49
9523;BME280;63165;43.016;25.784;2023-04-29T05:11:20;100278.00;;;6.28;88.53
9523;BME280;63165;43.016;25.784;2023-04-29T05:14:00;100288.56;;;6.60;89.10
9523;BME280;63165;43.016;25.784;2023-04-29T05:16:39;100226.09;;;6.47;89.91
9523;BME280;63165;43.016;25.784;2023-04-29T05:19:19;100273.91;;;7.03;89.52
9523;BME280;63165;43.016;25.784;2023-04-29T05:22:07;100293.91;;;7.37;89.37
9523;BME280;63165;43.016;25.784;2023-04-29T05:24:53;100289.56;;;7.60;88.66
9523;BME280;63165;43.016;25.784;2023-04-29T05:27:31;100273.03;;;7.81;87.67
9523;BME280;63165;43.016;25.784;2023-04-29T05:30:15;100217.50;;;7.71;87.05
9523;BME280;63165;43.016;25.784;2023-04-29T05:32:44;100233.03;;;8.06;86.19
9523;BME280;63165;43.016;25.784;2023-04-29T05:35:12;100265.88;;;8.49;85.53
9523;BME280;63165;43.016;25.784;2023-04-29T05:37:39;100248.44;;;8.63;84.35
9523;BME280;63165;43.016;25.784;2023-04-29T05:40:07;100270.91;;;8.83;83.40
9523;BME280;63165;43.016;25.784;2023-04-29T05:42:36;100226.63;;;8.75;82.20
9523;BME280;63165;43.016;25.784;2023-04-29T05:45:05;100240.41;;;8.97;81.60
9523;BME280;63165;43.016;25.784;2023-04-29T05:47:32;100247.25;;;9.13;81.66
9523;BME280;63165;43.016;25.784;2023-04-29T05:49:59;100261.84;;;9.38;81.14
9523;BME280;63165;43.016;25.784;2023-04-29T05:52:26;100199.31;;;9.21;79.85
9523;BME280;63165;43.016;25.784;2023-04-29T05:54:54;100272.00;;;9.67;79.67
9523;BME280;63165;43.016;25.784;2023-04-29T05:57:21;100225.97;;;9.60;79.09
9523;BME280;63165;43.016;25.784;2023-04-29T05:59:49;100169.59;;;9.36;77.67
9523;BME280;63165;43.016;25.784;2023-04-29T06:02:19;100246.41;;;10.01;77.57
9523;BME280;63165;43.016;25.784;2023-04-29T06:04:47;100243.66;;;10.14;76.50
9523;BME280;63165;43.016;25.784;2023-04-29T06:07:14;100228.84;;;10.16;75.44
9523;BME280;63165;43.016;25.784;2023-04-29T06:09:41;100220.06;;;10.20;75.24
9523;BME280;63165;43.016;25.784;2023-04-29T06:12:09;100242.47;;;10.44;74.67
9523;BME280;63165;43.016;25.784;2023-04-29T06:14:36;100237.09;;;10.53;74.14
9523;BME280;63165;43.016;25.784;2023-04-29T06:17:05;100238.72;;;10.62;73.38
9523;BME280;63165;43.016;25.784;2023-04-29T06:19:32;100242.13;;;10.68;72.99
9523;BME280;63165;43.016;25.784;2023-04-29T06:21:59;100240.22;;;10.78;72.62
9523;BME280;63165;43.016;25.784;2023-04-29T06:24:26;100254.13;;;10.83;71.76
9523;BME280;63165;43.016;25.784;2023-04-29T06:26:54;100225.47;;;10.73;72.17
9523;BME280;63165;43.016;25.784;2023-04-29T06:29:21;100228.75;;;10.88;71.99
9523;BME280;63165;43.016;25.784;2023-04-29T06:31:48;100247.78;;;10.98;71.90
9523;BME280;63165;43.016;25.784;2023-04-29T06:34:17;100239.84;;;11.03;71.80
9523;BME280;63165;43.016;25.784;2023-04-29T06:36:45;100199.19;;;10.82;71.89
9523;BME280;63165;43.016;25.784;2023-04-29T06:39:12;100234.47;;;11.14;72.03
9523;BME280;63165;43.016;25.784;2023-04-29T06:41:39;100241.34;;;11.19;71.70
9523;BME280;63165;43.016;25.784;2023-04-29T06:44:07;100213.69;;;11.03;71.22
9523;BME280;63165;43.016;25.784;2023-04-29T06:46:34;100238.59;;;11.27;70.58
9523;BME280;63165;43.016;25.784;2023-04-29T06:49:01;100245.50;;;11.33;70.13
9523;BME280;63165;43.016;25.784;2023-04-29T06:51:30;100229.81;;;11.31;69.85
9523;BME280;63165;43.016;25.784;2023-04-29T06:53:57;100217.66;;;11.25;69.34
9523;BME280;63165;43.016;25.784;2023-04-29T06:56:24;100196.66;;;11.30;69.06
9523;BME280;63165;43.016;25.784;2023-04-29T06:58:51;100219.00;;;11.50;68.79
9523;BME280;63165;43.016;25.784;2023-04-29T07:01:19;100211.00;;;11.57;68.90
9523;BME280;63165;43.016;25.784;2023-04-29T07:03:46;100217.88;;;11.64;68.83
9523;BME280;63165;43.016;25.784;2023-04-29T07:06:13;100213.38;;;11.73;68.64
9523;BME280;63165;43.016;25.784;2023-04-29T07:08:42;100215.88;;;11.77;68.88
9523;BME280;63165;43.016;25.784;2023-04-29T07:11:09;100214.88;;;11.84;68.57
9523;BME280;63165;43.016;25.784;2023-04-29T07:13:36;100220.84;;;11.94;68.94
9523;BME280;63165;43.016;25.784;2023-04-29T07:16:04;100216.28;;;12.04;69.01
9523;BME280;63165;43.016;25.784;2023-04-29T07:18:32;100201.28;;;12.11;69.42
9523;BME280;63165;43.016;25.784;2023-04-29T07:21:00;100206.88;;;12.36;68.33
9523;BME280;63165;43.016;25.784;2023-04-29T07:23:27;100223.03;;;12.56;65.96
9523;BME280;63165;43.016;25.784;2023-04-29T07:25:56;100206.22;;;12.67;65.77
9523;BME280;63165;43.016;25.784;2023-04-29T07:28:23;100208.47;;;12.82;64.84
9523;BME280;63165;43.016;25.784;2023-04-29T07:30:50;100208.09;;;12.97;64.67
9523;BME280;63165;43.016;25.784;2023-04-29T07:33:18;100204.41;;;13.06;64.00
9523;BME280;63165;43.016;25.784;2023-04-29T07:35:45;100192.16;;;13.05;62.49
9523;BME280;63165;43.016;25.784;2023-04-29T07:38:12;100206.53;;;13.26;62.17
9523;BME280;63165;43.016;25.784;2023-04-29T07:40:41;100207.97;;;13.39;61.79
9523;BME280;63165;43.016;25.784;2023-04-29T07:43:09;100208.66;;;13.46;61.31
9523;BME280;63165;43.016;25.784;2023-04-29T07:45:37;100191.16;;;13.47;60.84
9523;BME280;63165;43.016;25.784;2023-04-29T07:48:06;100196.69;;;13.69;60.69
9523;BME280;63165;43.016;25.784;2023-04-29T07:50:33;100186.47;;;13.89;60.12
9523;BME280;63165;43.016;25.784;2023-04-29T07:53:02;100185.19;;;14.04;60.18
9523;BME280;63165;43.016;25.784;2023-04-29T07:55:29;100193.34;;;14.25;59.61
9523;BME280;63165;43.016;25.784;2023-04-29T07:57:56;100185.63;;;14.48;58.52
9523;BME280;63165;43.016;25.784;2023-04-29T08:00:25;100173.84;;;14.62;57.83
9523;BME280;63165;43.016;25.784;2023-04-29T08:02:53;100168.63;;;14.87;57.50
9523;BME280;63165;43.016;25.784;2023-04-29T08:05:20;100162.13;;;14.99;57.42
9523;BME280;63165;43.016;25.784;2023-04-29T08:07:48;100156.75;;;15.28;57.85
9523;BME280;63165;43.016;25.784;2023-04-29T08:10:17;100172.47;;;15.57;56.84
9523;BME280;63165;43.016;25.784;2023-04-29T08:12:44;100155.13;;;15.75;55.63
9523;BME280;63165;43.016;25.784;2023-04-29T08:15:11;100155.59;;;15.86;53.68
9523;BME280;63165;43.016;25.784;2023-04-29T08:17:40;100153.25;;;16.02;52.65
9523;BME280;63165;43.016;25.784;2023-04-29T08:20:08;100174.59;;;16.19;53.05
9523;BME280;63165;43.016;25.784;2023-04-29T08:22:36;100147.00;;;16.28;52.59
9523;BME280;63165;43.016;25.784;2023-04-29T08:25:04;100144.78;;;16.39;52.46
9523;BME280;63165;43.016;25.784;2023-04-29T08:27:31;100128.53;;;16.50;52.60
9523;BME280;63165;43.016;25.784;2023-04-29T08:29:58;100133.81;;;16.72;52.08
9523;BME280;63165;43.016;25.784;2023-04-29T08:32:25;100138.97;;;16.97;50.40
9523;BME280;63165;43.016;25.784;2023-04-29T08:34:54;100127.06;;;17.07;48.16
9523;BME280;63165;43.016;25.784;2023-04-29T08:37:21;100133.34;;;17.46;47.70
9523;BME280;63165;43.016;25.784;2023-04-29T08:39:48;100133.22;;;17.70;46.20
9523;BME280;63165;43.016;25.784;2023-04-29T08:42:18;100134.19;;;17.88;44.84
9523;BME280;63165;43.016;25.784;2023-04-29T08:44:47;100131.22;;;18.14;43.79
9523;BME280;63165;43.016;25.784;2023-04-29T08:47:15;100117.06;;;18.33;42.75
9523;BME280;63165;43.016;25.784;2023-04-29T08:49:43;100117.63;;;18.58;42.25
9523;BME280;63165;43.016;25.784;2023-04-29T08:52:12;100112.25;;;18.77;42.48
9523;BME280;63165;43.016;25.784;2023-04-29T08:54:39;100117.84;;;19.08;41.92
9523;BME280;63165;43.016;25.784;2023-04-29T08:57:06;100123.31;;;19.22;41.25
9523;BME280;63165;43.016;25.784;2023-04-29T08:59:37;100107.06;;;19.28;40.97
9523;BME280;63165;43.016;25.784;2023-04-29T09:02:05;100100.28;;;19.40;39.93
9523;BME280;63165;43.016;25.784;2023-04-29T09:04:40;100108.69;;;19.48;38.56
9523;BME280;63165;43.016;25.784;2023-04-29T09:07:12;100103.22;;;19.51;38.54
9523;BME280;63165;43.016;25.784;2023-04-29T09:09:40;100111.47;;;19.63;38.41
9523;BME280;63165;43.016;25.784;2023-04-29T09:12:07;100113.63;;;19.72;38.67
9523;BME280;63165;43.016;25.784;2023-04-29T09:14:35;100099.44;;;19.73;37.94
9523;BME280;63165;43.016;25.784;2023-04-29T09:20:28;100094.59;;;19.64;37.65
9523;BME280;63165;43.016;25.784;2023-04-29T09:22:59;100066.84;;;19.53;37.66
9523;BME280;63165;43.016;25.784;2023-04-29T09:25:28;100091.16;;;19.79;37.60
9523;BME280;63165;43.016;25.784;2023-04-29T09:27:56;100089.28;;;19.81;37.66
9523;BME280;63165;43.016;25.784;2023-04-29T09:30:23;100099.22;;;19.77;36.45
9523;BME280;63165;43.016;25.784;2023-04-29T09:33:05;100093.56;;;19.84;36.39
9523;BME280;63165;43.016;25.784;2023-04-29T09:35:33;100092.03;;;19.95;37.68
9523;BME280;63165;43.016;25.784;2023-04-29T09:38:11;100065.22;;;20.00;36.87
9523;BME280;63165;43.016;25.784;2023-04-29T09:40:39;100073.19;;;20.16;36.80
9523;BME280;63165;43.016;25.784;2023-04-29T09:43:12;100064.81;;;20.24;36.23
9523;BME280;63165;43.016;25.784;2023-04-29T09:45:42;100076.25;;;20.40;35.32
9523;BME280;63165;43.016;25.784;2023-04-29T09:48:10;100070.50;;;20.48;35.52
9523;BME280;63165;43.016;25.784;2023-04-29T09:50:39;100070.16;;;20.54;35.45
9523;BME280;63165;43.016;25.784;2023-04-29T09:53:10;100057.03;;;20.51;35.67
9523;BME280;63165;43.016;25.784;2023-04-29T09:55:57;100054.88;;;20.58;35.20
9523;BME280;63165;43.016;25.784;2023-04-29T09:58:27;100047.38;;;20.50;36.21
9523;BME280;63165;43.016;25.784;2023-04-29T10:00:57;100060.81;;;20.63;36.33
9523;BME280;63165;43.016;25.784;2023-04-29T10:03:27;100063.16;;;20.83;35.86
9523;BME280;63165;43.016;25.784;2023-04-29T10:05:59;100029.47;;;20.84;35.96
9523;BME280;63165;43.016;25.784;2023-04-29T10:08:30;100046.13;;;21.16;36.01
9523;BME280;63165;43.016;25.784;2023-04-29T10:10:59;100034.06;;;21.10;35.17
9523;BME280;63165;43.016;25.784;2023-04-29T10:13:27;100023.69;;;21.20;35.08
9523;BME280;63165;43.016;25.784;2023-04-29T10:15:58;100037.69;;;21.38;34.46
9523;BME280;63165;43.016;25.784;2023-04-29T10:18:34;100030.66;;;21.37;34.40
9523;BME280;63165;43.016;25.784;2023-04-29T10:21:03;100021.72;;;21.38;34.56
9523;BME280;63165;43.016;25.784;2023-04-29T10:23:35;100018.09;;;21.39;34.16
9523;BME280;63165;43.016;25.784;2023-04-29T10:26:02;100021.38;;;21.59;33.82
9523;BME280;63165;43.016;25.784;2023-04-29T10:28:31;100014.88;;;21.77;34.09
9523;BME280;63165;43.016;25.784;2023-04-29T10:31:00;100029.28;;;21.87;33.18
9523;BME280;63165;43.016;25.784;2023-04-29T10:33:30;100024.47;;;21.80;32.37
9523;BME280;63165;43.016;25.784;2023-04-29T10:36:00;100029.13;;;21.90;32.59
9523;BME280;63165;43.016;25.784;2023-04-29T10:38:31;100020.06;;;21.93;33.02
9523;BME280;63165;43.016;25.784;2023-04-29T10:41:08;100033.13;;;22.10;32.44
9523;BME280;63165;43.016;25.784;2023-04-29T10:43:36;100024.00;;;22.15;31.74
9523;BME280;63165;43.016;25.784;2023-04-29T10:46:20;100021.47;;;21.99;30.90
9523;BME280;63165;43.016;25.784;2023-04-29T10:48:49;100021.94;;;22.05;31.80
9523;BME280;63165;43.016;25.784;2023-04-29T10:51:30;100031.28;;;21.84;31.12
9523;BME280;63165;43.016;25.784;2023-04-29T10:53:59;100035.88;;;21.82;31.46
9523;BME280;63165;43.016;25.784;2023-04-29T10:56:40;100030.81;;;21.91;31.54
9523;BME280;63165;43.016;25.784;2023-04-29T10:59:12;100027.25;;;22.05;31.44
9523;BME280;63165;43.016;25.784;2023-04-29T11:01:42;100024.59;;;22.05;31.51
9523;BME280;63165;43.016;25.784;2023-04-29T11:04:09;100023.03;;;22.16;31.72
9523;BME280;63165;43.016;25.784;2023-04-29T11:06:39;100024.19;;;22.26;32.01
9523;BME280;63165;43.016;25.784;2023-04-29T11:09:19;100002.13;;;22.37;31.28
9523;BME280;63165;43.016;25.784;2023-04-29T11:11:56;100014.22;;;22.55;31.24
9523;BME280;63165;43.016;25.784;2023-04-29T11:14:26;100005.91;;;22.47;31.11
9523;BME280;63165;43.016;25.784;2023-04-29T11:16:56;100020.31;;;22.44;30.54
9523;BME280;63165;43.016;25.784;2023-04-29T11:19:25;100009.84;;;22.41;30.94
9523;BME280;63165;43.016;25.784;2023-04-29T11:22:13;99981.34;;;22.42;30.13
9523;BME280;63165;43.016;25.784;2023-04-29T11:24:52;100009.25;;;22.63;30.50
9523;BME280;63165;43.016;25.784;2023-04-29T11:27:22;100015.63;;;22.61;29.89
9523;BME280;63165;43.016;25.784;2023-04-29T11:29:51;99999.59;;;22.48;29.79
9523;BME280;63165;43.016;25.784;2023-04-29T11:32:23;100000.16;;;22.53;30.06
9523;BME280;63165;43.016;25.784;2023-04-29T11:34:50;100002.84;;;22.66;30.48
9523;BME280;63165;43.016;25.784;2023-04-29T11:37:22;100001.00;;;22.54;29.92
9523;BME280;63165;43.016;25.784;2023-04-29T11:39:50;100001.97;;;22.53;30.17
9523;BME280;63165;43.016;25.784;2023-04-29T11:42:21;99999.22;;;22.54;29.47
9523;BME280;63165;43.016;25.784;2023-04-29T11:44:52;99983.84;;;22.45;29.61
9523;BME280;63165;43.016;25.784;2023-04-29T11:47:25;100011.41;;;22.71;29.91
9523;BME280;63165;43.016;25.784;2023-04-29T11:49:53;100003.94;;;22.76;29.74
9523;BME280;63165;43.016;25.784;2023-04-29T11:52:27;99990.19;;;22.82;29.27
9523;BME280;63165;43.016;25.784;2023-04-29T11:54:56;99983.75;;;22.85;28.85
9523;BME280;63165;43.016;25.784;2023-04-29T11:57:25;99979.19;;;22.87;29.39
9523;BME280;63165;43.016;25.784;2023-04-29T11:59:52;99974.06;;;22.84;28.58
9523;BME280;63165;43.016;25.784;2023-04-29T12:02:21;99949.22;;;22.71;28.65
9523;BME280;63165;43.016;25.784;2023-04-29T12:04:49;99970.88;;;22.92;29.02
9523;BME280;63165;43.016;25.784;2023-04-29T12:07:16;99971.19;;;23.00;28.66
9523;BME280;63165;43.016;25.784;2023-04-29T12:09:44;99968.75;;;22.84;28.21
9523;BME280;63165;43.016;25.784;2023-04-29T12:12:19;99960.94;;;22.81;27.61
9523;BME280;63165;43.016;25.784;2023-04-29T12:14:47;99966.72;;;22.75;27.11
9523;BME280;63165;43.016;25.784;2023-04-29T12:17:15;99972.69;;;22.78;27.76
9523;BME280;63165;43.016;25.784;2023-04-29T12:19:43;99939.28;;;22.73;27.73
9523;BME280;63165;43.016;25.784;2023-04-29T12:22:10;99939.25;;;22.85;27.46
9523;BME280;63165;43.016;25.784;2023-04-29T12:24:38;99941.94;;;22.98;28.36
9523;BME280;63165;43.016;25.784;2023-04-29T12:27:07;99954.66;;;23.20;27.89
9523;BME280;63165;43.016;25.784;2023-04-29T12:29:35;99947.09;;;23.14;28.58
9523;BME280;63165;43.016;25.784;2023-04-29T12:32:04;99944.06;;;23.19;28.35
9523;BME280;63165;43.016;25.784;2023-04-29T12:34:32;99951.44;;;23.28;28.90
9523;BME280;63165;43.016;25.784;2023-04-29T12:36:59;99949.22;;;23.22;27.82
9523;BME280;63165;43.016;25.784;2023-04-29T12:39:27;99952.63;;;23.24;27.89
9523;BME280;63165;43.016;25.784;2023-04-29T12:41:56;99950.69;;;23.26;27.95
9523;BME280;63165;43.016;25.784;2023-04-29T12:44:23;99915.91;;;23.15;27.26
9523;BME280;63165;43.016;25.784;2023-04-29T12:46:51;99921.25;;;23.15;27.18
9523;BME280;63165;43.016;25.784;2023-04-29T12:49:23;99904.03;;;23.19;26.35
9523;BME280;63165;43.016;25.784;2023-04-29T12:51:50;99928.44;;;23.51;26.92
9523;BME280;63165;43.016;25.784;2023-04-29T12:54:17;99935.38;;;23.54;26.55
9523;BME280;63165;43.016;25.784;2023-04-29T12:56:47;99931.91;;;23.64;26.93
9523;BME280;63165;43.016;25.784;2023-04-29T12:59:15;99927.94;;;23.70;26.86
9523;BME280;63165;43.016;25.784;2023-04-29T13:01:42;99904.09;;;23.43;27.48
9523;BME280;63165;43.016;25.784;2023-04-29T13:04:10;99910.97;;;23.58;27.23
9523;BME280;63165;43.016;25.784;2023-04-29T13:06:38;99924.53;;;23.68;26.88
9523;BME280;63165;43.016;25.784;2023-04-29T13:09:06;99909.72;;;23.75;27.55
9523;BME280;63165;43.016;25.784;2023-04-29T13:11:36;99901.59;;;23.77;27.84
9523;BME280;63165;43.016;25.784;2023-04-29T13:14:04;99891.59;;;23.68;27.58
9523;BME280;63165;43.016;25.784;2023-04-29T13:16:31;99883.72;;;23.66;27.86
9523;BME280;63165;43.016;25.784;2023-04-29T13:18:59;99899.94;;;23.76;27.20
9523;BME280;63165;43.016;25.784;2023-04-29T13:21:26;99904.38;;;23.75;27.33
9523;BME280;63165;43.016;25.784;2023-04-29T13:23:55;99888.94;;;23.68;26.61
9523;BME280;63165;43.016;25.784;2023-04-29T13:26:22;99904.38;;;23.75;26.30
9523;BME280;63165;43.016;25.784;2023-04-29T13:28:51;99889.19;;;23.64;26.79
9523;BME280;63165;43.016;25.784;2023-04-29T13:31:18;99893.59;;;23.53;26.83
9523;BME280;63165;43.016;25.784;2023-04-29T13:33:45;99874.75;;;23.30;26.62
9523;BME280;63165;43.016;25.784;2023-04-29T13:36:13;99876.75;;;23.39;27.08
9523;BME280;63165;43.016;25.784;2023-04-29T13:38:40;99871.44;;;23.63;27.86
9523;BME280;63165;43.016;25.784;2023-04-29T13:41:09;99899.63;;;23.68;27.07
9523;BME280;63165;43.016;25.784;2023-04-29T13:43:37;99828.94;;;23.36;26.36
9523;BME280;63165;43.016;25.784;2023-04-29T13:46:05;99831.19;;;23.30;26.46
9523;BME280;63165;43.016;25.784;2023-04-29T13:48:35;99853.94;;;23.35;25.80
9523;BME280;63165;43.016;25.784;2023-04-29T13:51:11;99792.75;;;22.95;26.17
9523;BME280;63165;43.016;25.784;2023-04-29T13:53:39;99849.25;;;23.26;26.76
9523;BME280;63165;43.016;25.784;2023-04-29T13:56:06;99854.56;;;23.39;26.63
9523;BME280;63165;43.016;25.784;2023-04-29T13:58:35;99864.50;;;23.37;26.32
9523;BME280;63165;43.016;25.784;2023-04-29T14:01:05;99855.19;;;23.42;26.30
9523;BME280;63165;43.016;25.784;2023-04-29T14:03:32;99854.50;;;23.52;26.16
9523;BME280;63165;43.016;25.784;2023-04-29T14:06:15;99857.91;;;23.54;26.76
9523;BME280;63165;43.016;25.784;2023-04-29T14:08:43;99853.72;;;23.62;27.20
9523;BME280;63165;43.016;25.784;2023-04-29T14:11:14;99839.50;;;23.62;27.21
9523;BME280;63165;43.016;25.784;2023-04-29T14:13:45;99851.94;;;23.74;27.54
9523;BME280;63165;43.016;25.784;2023-04-29T14:16:12;99818.38;;;23.59;27.15
9523;BME280;63165;43.016;25.784;2023-04-29T14:18:42;99841.59;;;23.70;27.31
9523;BME280;63165;43.016;25.784;2023-04-29T14:21:09;99840.22;;;23.64;26.96
9523;BME280;63165;43.016;25.784;2023-04-29T14:24:16;99842.41;;;23.59;27.13
9523;BME280;63165;43.016;25.784;2023-04-29T14:26:43;99835.50;;;23.43;27.42
9523;BME280;63165;43.016;25.784;2023-04-29T14:29:54;99839.09;;;23.31;28.29
9523;BME280;63165;43.016;25.784;2023-04-29T14:32:21;99812.81;;;23.01;28.69
9523;BME280;63165;43.016;25.784;2023-04-29T14:34:50;99839.91;;;23.08;28.99
9523;BME280;63165;43.016;25.784;2023-04-29T14:37:17;99830.75;;;22.86;29.20
9523;BME280;63165;43.016;25.784;2023-04-29T14:39:50;99786.66;;;22.43;28.78
9523;BME280;63165;43.016;25.784;2023-04-29T14:42:27;99839.22;;;22.67;29.61
9523;BME280;63165;43.016;25.784;2023-04-29T14:44:55;99851.69;;;22.54;29.43
9523;BME280;63165;43.016;25.784;2023-04-29T14:47:23;99840.19;;;22.53;29.74
9523;BME280;63165;43.016;25.784;2023-04-29T14:49:50;99831.78;;;22.46;29.93
9523;BME280;63165;43.016;25.784;2023-04-29T14:52:17;99831.03;;;22.44;30.00
9523;BME280;63165;43.016;25.784;2023-04-29T14:54:44;99830.06;;;22.45;29.82
9523;BME280;63165;43.016;25.784;2023-04-29T14:57:12;99832.28;;;22.52;29.70
9523;BME280;63165;43.016;25.784;2023-04-29T14:59:39;99824.50;;;22.61;30.18
9523;BME280;63165;43.016;25.784;2023-04-29T15:02:08;99833.66;;;22.70;30.09
9523;BME280;63165;43.016;25.784;2023-04-29T15:04:36;99800.94;;;22.55;29.38
9523;BME280;63165;43.016;25.784;2023-04-29T15:07:08;99837.28;;;22.82;29.00
9523;BME280;63165;43.016;25.784;2023-04-29T15:09:35;99825.09;;;22.78;28.68
9523;BME280;63165;43.016;25.784;2023-04-29T15:12:03;99810.94;;;22.64;28.26
9523;BME280;63165;43.016;25.784;2023-04-29T15:14:30;99830.06;;;22.58;27.65
9523;BME280;63165;43.016;25.784;2023-04-29T15:16:58;99810.09;;;22.51;27.94
9523;BME280;63165;43.016;25.784;2023-04-29T15:19:26;99811.28;;;22.60;28.73
9523;BME280;63165;43.016;25.784;2023-04-29T15:21:54;99824.91;;;22.55;28.43
9523;BME280;63165;43.016;25.784;2023-04-29T15:24:21;99806.28;;;22.29;29.53
9523;BME280;63165;43.016;25.784;2023-04-29T15:26:48;99793.56;;;22.07;29.28
9523;BME280;63165;43.016;25.784;2023-04-29T15:29:16;99822.53;;;22.12;29.84
9523;BME280;63165;43.016;25.784;2023-04-29T15:31:43;99819.66;;;22.02;30.35
9523;BME280;63165;43.016;25.784;2023-04-29T15:34:11;99810.47;;;21.94;30.29
9523;BME280;63165;43.016;25.784;2023-04-29T15:36:40;99826.03;;;21.87;30.80
9523;BME280;63165;43.016;25.784;2023-04-29T15:39:08;99830.34;;;21.75;31.26
9523;BME280;63165;43.016;25.784;2023-04-29T15:41:37;99833.84;;;21.63;31.39
9523;BME280;63165;43.016;25.784;2023-04-29T15:44:04;99830.06;;;21.52;32.04
9523;BME280;63165;43.016;25.784;2023-04-29T15:46:32;99814.03;;;21.40;32.16